Mount Berry, GA (30149)

9:30 AM EDT on August 28, 2015 (GMT -0400)
Oak Hill & The Martha Berry Museum | | Change Station
CLOSE
Current Station
Personal Weather Station
Location: Rome, GA
Elevation: 643 ft
Nearby Weather Stations

Elev 643 ft 34.28 °N, 85.18 °W | Updated 12 minutes ago

Overcast
Overcast
69.3 °F
Feels Like 69.3 °F
N
0.0
Wind Variable Wind from NNE

Today
High -- | Low -- °F
--% Chance of Precip.
Yesterday
High -- | Low -- °F
Precip. -- in
7:11 AM 8:12 PM
Waxing Gibbous, 98% visible
Pressure 30.14 in
Visibility 9.0 miles
Clouds Overcast 1400 ft
Dew Point 66 °F
Humidity 90%
Rainfall 0.00 in
Snow Depth Not available.
UV 1 out of 12
Pollen 8.90 out of 12
Air Quality Not available.
Flu Activity Not available.
SPECI KRMG 281306Z AUTO 04004KT 9SM OVC014 21/19 A3014 RMK AO2 T02110194
Pressure 30.14 in
Visibility 9.0 miles
Clouds Overcast 1400 ft
Dew Point 66 °F
Humidity 90%
Rainfall 0.00 in
Snow Depth Not available.
UV 1 out of 12
Pollen 8.90 out of 12
Air Quality Not available.
Flu Activity Not available.
SPECI KRMG 281306Z AUTO 04004KT 9SM OVC014 21/19 A3014 RMK AO2 T02110194

10-Day Weather Forecast

×

Almanac

Astronomy

Aug. 28, 2015 Rise Set
Actual Time
Civil Twilight
Nautical Twilight
Astronomical Twilight
Moon
Length of Visible Light
Length of Day
Tomorrow will be .
, % of the Moon is Illuminated

Today's Extremes

State Highs State Lows

Community

WunderPhotos

Upload Photos

1,850,376 photos uploaded!

WunderBlogs® & News

Nearby

Air Quality

  Air Quality AQ Index Pollutant
Not available.

Snow Depth

Station Depth Elevation

Earthquake Activity

City Distance Mag. Time & Date
Minimum magnitude displayed is 2.5.

Coastal Water Temperatures

Place Temperature

Stations

Nearby Weather Stations

Station Location Temp. Windchill Dew Point Humidity Wind Precip. Elev Updated Type